createdAt,value
2022-12-14T00:00:31.541Z,13.73
2022-12-14T00:02:52.967Z,13.97
2022-12-14T00:05:15.727Z,13.73
2022-12-14T00:07:38.289Z,14.20
2022-12-14T00:09:59.392Z,14.07
2022-12-14T00:12:20.886Z,13.27
2022-12-14T00:14:42.131Z,12.90
2022-12-14T00:17:03.557Z,13.77
2022-12-14T00:19:24.913Z,13.33
2022-12-14T00:21:46.368Z,14.23
2022-12-14T00:24:08.746Z,13.50
2022-12-14T00:26:31.062Z,13.50
2022-12-14T00:28:53.786Z,13.90
2022-12-14T00:31:15.067Z,14.20
2022-12-14T00:33:36.216Z,14.37
2022-12-14T00:35:57.374Z,14.97
2022-12-14T00:38:18.568Z,13.67
2022-12-14T00:40:41.338Z,13.10
2022-12-14T00:43:02.578Z,14.27
2022-12-14T00:45:24.112Z,14.00
2022-12-14T00:47:45.497Z,12.60
2022-12-14T00:50:07.259Z,13.03
2022-12-14T00:52:28.779Z,13.57
2022-12-14T00:54:49.978Z,13.07
2022-12-14T00:57:12.591Z,13.57
2022-12-14T00:59:33.798Z,13.00
2022-12-14T01:01:54.897Z,14.60
2022-12-14T01:04:19.505Z,13.67
2022-12-14T01:06:40.888Z,14.47
2022-12-14T01:09:02.085Z,13.47
2022-12-14T01:11:23.645Z,13.97
2022-12-14T01:13:49.688Z,14.00
2022-12-14T01:16:13.190Z,14.00
2022-12-14T01:18:35.658Z,14.20
2022-12-14T01:20:56.489Z,15.27
2022-12-14T01:23:17.950Z,15.17
2022-12-14T01:25:39.116Z,14.07
2022-12-14T01:28:00.150Z,15.10
2022-12-14T01:30:22.723Z,14.83
2022-12-14T01:32:43.900Z,14.27
2022-12-14T01:35:05.418Z,14.83
2022-12-14T01:37:26.433Z,15.03
2022-12-14T01:39:48.058Z,14.90
2022-12-14T01:42:11.914Z,14.53
2022-12-14T01:44:51.735Z,15.80
2022-12-14T01:47:18.613Z,15.20
2022-12-14T01:49:41.541Z,15.20
2022-12-14T01:52:08.055Z,16.47
2022-12-14T01:54:31.973Z,15.43
2022-12-14T01:56:53.388Z,15.10
2022-12-14T01:59:16.959Z,15.03
2022-12-14T02:01:38.426Z,15.23
2022-12-14T02:04:02.161Z,14.57
2022-12-14T02:06:26.266Z,15.80
2022-12-14T02:08:48.343Z,15.77
2022-12-14T02:11:09.525Z,15.87
2022-12-14T02:13:32.936Z,15.50
2022-12-14T02:15:54.181Z,16.30
2022-12-14T02:18:17.973Z,15.73
2022-12-14T02:20:45.123Z,15.77
2022-12-14T02:23:24.494Z,16.07
2022-12-14T02:26:12.851Z,15.60
2022-12-14T02:28:57.964Z,15.77
2022-12-14T02:31:24.745Z,15.90
2022-12-14T02:33:49.142Z,15.13
2022-12-14T02:36:14.345Z,16.07
2022-12-14T02:38:43.787Z,15.40
2022-12-14T02:41:09.707Z,15.63
2022-12-14T02:43:32.805Z,15.73
2022-12-14T02:45:57.104Z,16.17
2022-12-14T02:48:21.500Z,15.93
2022-12-14T02:50:44.656Z,16.50
2022-12-14T02:53:10.968Z,15.93
2022-12-14T02:55:34.899Z,15.83
2022-12-14T02:57:59.203Z,15.90
2022-12-14T03:00:20.638Z,16.57
2022-12-14T03:02:43.131Z,16.37
2022-12-14T03:05:06.070Z,16.57
2022-12-14T03:07:31.455Z,16.13
2022-12-14T03:09:53.507Z,15.80
2022-12-14T03:12:16.733Z,16.93
2022-12-14T03:14:40.852Z,16.77
2022-12-14T03:17:05.208Z,17.47
2022-12-14T03:19:28.067Z,16.60
2022-12-14T03:21:52.697Z,16.97
2022-12-14T03:24:17.630Z,18.27
2022-12-14T03:26:47.050Z,16.83
2022-12-14T03:29:11.283Z,16.63
2022-12-14T03:31:33.652Z,16.43
2022-12-14T03:33:55.720Z,17.70
2022-12-14T03:36:18.862Z,18.90
2022-12-14T03:38:42.505Z,18.37
2022-12-14T03:41:06.311Z,18.00
2022-12-14T03:43:32.837Z,18.07
2022-12-14T03:45:58.835Z,16.87
2022-12-14T03:48:26.436Z,18.17
2022-12-14T03:50:49.846Z,18.70
2022-12-14T03:53:13.185Z,19.20
2022-12-14T03:55:38.966Z,18.10
2022-12-14T03:58:13.856Z,18.13
2022-12-14T04:00:38.371Z,17.27
2022-12-14T04:03:03.643Z,18.73
2022-12-14T04:05:27.959Z,18.40
2022-12-14T04:07:52.170Z,18.63
2022-12-14T04:10:28.259Z,18.07
2022-12-14T04:13:08.726Z,17.57
2022-12-14T04:15:50.401Z,17.93
2022-12-14T04:18:32.348Z,18.77
2022-12-14T04:20:55.679Z,17.03
2022-12-14T04:23:39.216Z,17.87
2022-12-14T04:26:05.383Z,19.00
2022-12-14T04:28:47.430Z,19.43
2022-12-14T04:31:10.429Z,18.40
2022-12-14T04:33:48.817Z,17.77
2022-12-14T04:36:10.515Z,18.63
2022-12-14T04:38:34.695Z,18.93
2022-12-14T04:40:57.141Z,17.57
2022-12-14T04:43:20.744Z,18.80
2022-12-14T04:45:47.754Z,19.37
2022-12-14T04:48:10.411Z,18.40
2022-12-14T04:50:35.778Z,18.33
2022-12-14T04:52:59.529Z,18.73
2022-12-14T04:55:25.146Z,18.17
2022-12-14T04:57:49.395Z,18.43
2022-12-14T05:00:11.176Z,19.43
2022-12-14T05:02:37.339Z,19.53
2022-12-14T05:05:01.785Z,17.60
2022-12-14T05:07:29.716Z,18.43
2022-12-14T05:09:54.958Z,18.23
2022-12-14T05:12:17.795Z,18.33
2022-12-14T05:14:41.352Z,17.90
2022-12-14T05:17:08.461Z,19.13
2022-12-14T05:19:31.550Z,18.40
2022-12-14T05:21:52.625Z,18.83
2022-12-14T05:24:14.055Z,18.73
2022-12-14T05:26:35.529Z,18.70
2022-12-14T05:28:57.003Z,18.50
2022-12-14T05:31:18.054Z,18.33
2022-12-14T05:33:39.458Z,18.13
2022-12-14T05:36:02.157Z,18.60
2022-12-14T05:38:23.388Z,19.10
2022-12-14T05:40:44.893Z,18.60
2022-12-14T05:43:06.608Z,19.23
2022-12-14T05:45:27.505Z,18.67
2022-12-14T05:47:48.862Z,18.87
2022-12-14T05:50:10.172Z,18.90
2022-12-14T05:52:32.772Z,18.63
2022-12-14T05:54:55.542Z,19.73
2022-12-14T05:57:18.358Z,18.50
2022-12-14T05:59:39.740Z,18.67
2022-12-14T06:02:01.208Z,19.27
2022-12-14T06:04:22.441Z,18.33
2022-12-14T06:06:43.726Z,18.47
2022-12-14T06:09:08.106Z,20.03
2022-12-14T06:11:29.465Z,19.47
2022-12-14T06:13:51.038Z,19.43
2022-12-14T06:16:13.438Z,19.63
2022-12-14T06:18:34.875Z,19.33
2022-12-14T06:20:57.211Z,19.03
2022-12-14T06:23:18.482Z,19.40
2022-12-14T06:25:41.012Z,18.63
2022-12-14T06:28:02.943Z,20.03
2022-12-14T06:30:24.264Z,20.07
2022-12-14T06:32:45.495Z,21.10
2022-12-14T06:35:07.618Z,18.53
2022-12-14T06:37:28.583Z,19.10
2022-12-14T06:39:54.303Z,20.17
2022-12-14T06:42:17.311Z,20.13
2022-12-14T06:44:38.482Z,20.13
2022-12-14T06:46:59.746Z,20.13
2022-12-14T06:49:20.870Z,20.47
2022-12-14T06:51:42.013Z,20.77
2022-12-14T06:54:03.121Z,19.60
2022-12-14T06:56:25.793Z,21.00
2022-12-14T06:58:48.572Z,20.37
2022-12-14T07:01:10.379Z,21.20
2022-12-14T07:03:31.864Z,19.70
2022-12-14T07:05:56.680Z,21.07
2022-12-14T07:08:17.673Z,22.00
2022-12-14T07:10:39.030Z,21.30
2022-12-14T07:13:00.651Z,21.93
2022-12-14T07:15:22.925Z,21.50
2022-12-14T07:17:44.155Z,22.37
2022-12-14T07:20:06.886Z,21.90
2022-12-14T07:22:28.168Z,21.53
2022-12-14T07:24:49.878Z,21.50
2022-12-14T07:27:11.185Z,23.60
2022-12-14T07:29:34.868Z,22.83
2022-12-14T07:31:57.457Z,22.57
2022-12-14T07:34:18.806Z,22.97
2022-12-14T07:36:40.062Z,23.17
2022-12-14T07:39:01.258Z,22.10
2022-12-14T07:41:23.809Z,22.17
2022-12-14T07:43:45.109Z,22.73
2022-12-14T07:46:12.601Z,23.87
2022-12-14T07:48:35.661Z,22.87
2022-12-14T07:51:01.895Z,23.57
2022-12-14T07:53:23.015Z,22.30
2022-12-14T07:55:44.191Z,23.37
2022-12-14T07:58:05.406Z,23.87
2022-12-14T08:00:26.653Z,24.20
2022-12-14T08:02:47.898Z,23.43
2022-12-14T08:05:12.762Z,23.97
2022-12-14T08:07:34.682Z,23.27
2022-12-14T08:09:55.843Z,23.03
2022-12-14T08:12:17.083Z,23.77
2022-12-14T08:14:38.407Z,24.03
2022-12-14T08:16:59.581Z,23.73
2022-12-14T08:19:21.435Z,23.13
2022-12-14T08:21:45.352Z,22.87
2022-12-14T08:24:06.603Z,23.10
2022-12-14T08:26:33.525Z,23.73
2022-12-14T08:28:56.690Z,23.03
2022-12-14T08:31:19.523Z,22.30
2022-12-14T08:33:41.231Z,22.70
2022-12-14T08:36:06.351Z,23.37
2022-12-14T08:38:28.532Z,23.33
2022-12-14T08:40:50.113Z,24.07
2022-12-14T08:43:11.349Z,24.07
2022-12-14T08:45:32.449Z,24.20
2022-12-14T08:47:53.831Z,25.13
2022-12-14T08:50:15.297Z,25.23
2022-12-14T08:52:36.539Z,29.97
2022-12-14T08:54:59.976Z,31.70
2022-12-14T08:57:21.067Z,26.93
2022-12-14T09:02:23.882Z,24.03
2022-12-14T09:04:44.725Z,25.03
2022-12-14T09:07:05.979Z,24.97
2022-12-14T09:09:27.144Z,25.00
2022-12-14T09:11:49.809Z,24.27
2022-12-14T09:14:11.143Z,26.20
2022-12-14T09:16:32.430Z,24.57
2022-12-14T09:18:54.032Z,24.90
2022-12-14T09:21:15.501Z,25.20
2022-12-14T09:23:37.236Z,25.33
2022-12-14T09:26:02.513Z,24.80
2022-12-14T09:28:25.074Z,25.27
2022-12-14T09:30:46.202Z,25.70
2022-12-14T09:33:07.363Z,27.70
2022-12-14T09:35:28.558Z,25.70
2022-12-14T09:37:49.839Z,26.70
2022-12-14T09:40:11.814Z,26.70
2022-12-14T09:42:50.493Z,27.13
2022-12-14T09:45:18.012Z,27.60
2022-12-14T09:47:44.005Z,26.33
2022-12-14T09:50:06.626Z,26.27
2022-12-14T09:52:34.567Z,27.43
2022-12-14T09:54:56.435Z,27.67
2022-12-14T09:57:22.164Z,26.67
2022-12-14T09:59:44.115Z,27.50
2022-12-14T10:02:35.990Z,29.00
2022-12-14T10:05:05.181Z,26.53
2022-12-14T10:07:34.231Z,27.07
2022-12-14T10:09:57.554Z,27.70
2022-12-14T10:12:26.321Z,29.10
2022-12-14T10:14:56.032Z,28.10
2022-12-14T10:17:18.551Z,28.53
2022-12-14T10:19:42.559Z,28.73
2022-12-14T10:22:07.422Z,29.10
2022-12-14T10:24:33.181Z,28.83
2022-12-14T10:26:55.656Z,29.27
2022-12-14T10:29:20.185Z,28.67
2022-12-14T10:31:45.730Z,29.40
2022-12-14T10:34:13.759Z,29.23
2022-12-14T10:36:38.647Z,30.40
2022-12-14T10:39:02.159Z,29.87
2022-12-14T10:41:26.627Z,28.80
2022-12-14T10:43:52.011Z,28.17
2022-12-14T10:46:18.273Z,29.53
2022-12-14T10:48:42.759Z,29.87
2022-12-14T10:51:06.299Z,28.53
2022-12-14T10:53:29.580Z,29.93
2022-12-14T10:55:54.459Z,30.00
2022-12-14T10:58:15.661Z,30.03
2022-12-14T11:00:37.176Z,29.93
2022-12-14T11:02:58.975Z,29.57
2022-12-14T11:05:24.724Z,28.57
2022-12-14T11:07:49.709Z,28.73
2022-12-14T11:10:16.008Z,30.10
2022-12-14T11:12:38.948Z,29.53
2022-12-14T11:15:01.179Z,28.17
2022-12-14T11:17:33.572Z,29.43
2022-12-14T11:20:04.163Z,28.77
2022-12-14T11:22:25.580Z,27.37
2022-12-14T11:24:47.653Z,28.97
2022-12-14T11:27:11.101Z,29.20
2022-12-14T11:29:35.363Z,29.53
2022-12-14T11:31:56.443Z,30.43
2022-12-14T11:34:22.714Z,31.07
2022-12-14T11:36:43.800Z,30.93
2022-12-14T11:39:06.195Z,31.63
2022-12-14T11:41:30.288Z,30.83
2022-12-14T11:44:01.937Z,30.70
2022-12-14T11:46:44.753Z,30.63
2022-12-14T11:49:19.536Z,32.63
2022-12-14T11:51:54.504Z,31.93
2022-12-14T11:54:16.603Z,32.60
2022-12-14T11:56:37.797Z,31.93
2022-12-14T11:58:58.682Z,31.07
2022-12-14T12:01:21.282Z,31.27
2022-12-14T12:03:46.768Z,31.30
2022-12-14T12:06:10.034Z,34.40
2022-12-14T12:08:33.521Z,33.80
2022-12-14T12:11:01.902Z,33.53
2022-12-14T12:13:25.831Z,33.73
2022-12-14T12:15:50.095Z,31.50
2022-12-14T12:18:16.235Z,30.87
2022-12-14T12:20:41.903Z,30.80
2022-12-14T12:23:05.625Z,34.90
2022-12-14T12:25:33.553Z,33.40
2022-12-14T12:28:00.295Z,31.97
2022-12-14T12:30:23.960Z,31.70
2022-12-14T12:32:49.925Z,30.13
2022-12-14T12:35:15.661Z,29.83
2022-12-14T12:37:42.508Z,30.03
2022-12-14T12:40:04.869Z,30.17
2022-12-14T12:42:27.640Z,29.87
2022-12-14T12:44:51.763Z,30.67
2022-12-14T12:47:30.250Z,29.80
2022-12-14T12:49:53.714Z,31.27
2022-12-14T12:52:18.529Z,33.40
2022-12-14T12:54:43.033Z,33.27
2022-12-14T12:57:05.919Z,34.27
2022-12-14T12:59:33.805Z,33.17
2022-12-14T13:01:56.411Z,34.57
2022-12-14T13:04:24.495Z,34.27
2022-12-14T13:06:49.972Z,35.03
2022-12-14T13:09:16.595Z,33.87
2022-12-14T13:11:40.419Z,34.30
2022-12-14T13:14:04.344Z,34.03
2022-12-14T13:16:28.299Z,33.70
2022-12-14T13:19:08.932Z,35.07
2022-12-14T13:21:34.723Z,36.20
2022-12-14T13:23:56.215Z,35.83
2022-12-14T13:26:56.103Z,37.13
2022-12-14T13:29:10.769Z,37.37
2022-12-14T13:31:36.868Z,36.77
2022-12-14T13:34:05.458Z,36.50
2022-12-14T13:36:52.333Z,37.03
2022-12-14T13:39:28.850Z,38.43
2022-12-14T13:41:52.610Z,37.00
2022-12-14T13:44:38.594Z,43.00
2022-12-14T13:47:07.025Z,41.67
2022-12-14T13:49:29.595Z,46.37
2022-12-14T13:51:51.728Z,127.57
2022-12-14T13:54:19.724Z,43.23
2022-12-14T13:56:40.913Z,39.80
2022-12-14T13:59:03.313Z,40.83
2022-12-14T14:01:39.580Z,40.93
2022-12-14T14:04:15.641Z,40.87
2022-12-14T14:06:39.687Z,37.63
2022-12-14T14:09:03.321Z,37.97
2022-12-14T14:11:43.283Z,39.80
2022-12-14T14:14:11.174Z,37.57
2022-12-14T14:16:34.582Z,35.97
2022-12-14T14:18:59.290Z,36.80
2022-12-14T14:21:29.920Z,39.67
2022-12-14T14:23:57.687Z,35.27
2022-12-14T14:26:21.220Z,36.80
2022-12-14T14:28:42.389Z,43.80
2022-12-14T14:31:05.116Z,35.43
2022-12-14T14:33:48.570Z,42.77
2022-12-14T14:36:12.025Z,42.53
2022-12-14T14:38:33.377Z,36.97
2022-12-14T14:43:40.188Z,34.90
2022-12-14T14:46:03.113Z,35.10
2022-12-14T14:48:29.259Z,34.57
2022-12-14T14:50:51.254Z,34.17
2022-12-14T14:53:14.275Z,35.53
2022-12-14T14:56:00.586Z,37.63
2022-12-14T14:58:34.002Z,37.27
2022-12-14T15:00:59.262Z,37.03
2022-12-14T15:03:23.108Z,36.73
2022-12-14T15:05:44.866Z,35.97
2022-12-14T15:08:06.494Z,35.30
2022-12-14T15:10:32.127Z,35.13
2022-12-14T15:12:54.625Z,36.17
2022-12-14T15:15:19.242Z,39.83
2022-12-14T15:17:40.565Z,36.17
2022-12-14T15:20:02.698Z,34.90
2022-12-14T15:22:24.460Z,36.93
2022-12-14T15:24:46.624Z,38.33
2022-12-14T15:27:12.731Z,40.00
2022-12-14T15:29:34.195Z,37.27
2022-12-14T15:32:00.575Z,35.33
2022-12-14T15:34:22.193Z,38.20
2022-12-14T15:36:44.173Z,33.37
2022-12-14T15:39:05.910Z,34.43
2022-12-14T15:41:28.801Z,34.60
2022-12-14T15:43:53.717Z,36.17
2022-12-14T15:46:18.964Z,34.37
2022-12-14T15:48:41.331Z,31.53
2022-12-14T15:51:03.959Z,30.33
2022-12-14T15:53:29.068Z,31.53
2022-12-14T15:55:59.837Z,29.47
2022-12-14T15:58:28.337Z,31.63
2022-12-14T16:00:51.597Z,30.87
2022-12-14T16:03:17.065Z,28.77
2022-12-14T16:05:39.671Z,30.83
2022-12-14T16:08:01.142Z,30.57
2022-12-14T16:10:24.460Z,30.00
2022-12-14T16:12:46.512Z,32.80
2022-12-14T16:15:10.316Z,29.97
2022-12-14T16:17:33.843Z,97.73
2022-12-14T16:20:00.222Z,44.20
2022-12-14T16:22:24.428Z,46.23
2022-12-14T16:24:59.061Z,37.80
2022-12-14T16:27:20.941Z,33.07
2022-12-14T16:29:48.050Z,32.60
2022-12-14T16:32:15.535Z,32.97
2022-12-14T16:34:36.776Z,32.30
2022-12-14T16:37:31.083Z,37.27
2022-12-14T16:39:46.364Z,33.20
2022-12-14T16:42:17.863Z,31.93
2022-12-14T16:44:40.118Z,31.50
2022-12-14T16:47:08.446Z,31.23
2022-12-14T16:49:31.865Z,31.13
2022-12-14T16:52:07.435Z,34.20
2022-12-14T16:54:30.348Z,32.77
2022-12-14T16:56:56.571Z,33.00
2022-12-14T16:59:21.412Z,33.30
2022-12-14T17:01:44.571Z,33.80
2022-12-14T17:04:06.919Z,34.73
2022-12-14T17:06:33.769Z,34.93
2022-12-14T17:08:55.140Z,33.07
2022-12-14T17:11:16.528Z,30.93
2022-12-14T17:13:39.333Z,31.40
2022-12-14T17:16:01.796Z,30.53
2022-12-14T17:18:23.725Z,32.23
2022-12-14T17:20:45.165Z,32.40
2022-12-14T17:23:08.486Z,31.20
2022-12-14T17:25:30.908Z,31.17
2022-12-14T17:27:51.893Z,31.57
2022-12-14T17:30:16.586Z,31.97
2022-12-14T17:32:38.095Z,30.93
2022-12-14T17:34:59.832Z,30.90
2022-12-14T17:37:22.269Z,30.53
2022-12-14T17:39:43.526Z,30.10
2022-12-14T17:42:06.504Z,30.47
2022-12-14T17:44:27.460Z,28.00
2022-12-14T17:46:50.111Z,30.07
2022-12-14T17:49:12.739Z,27.87
2022-12-14T17:51:39.852Z,27.57
2022-12-14T17:54:01.377Z,27.60
2022-12-14T17:56:22.934Z,29.07
2022-12-14T17:58:45.375Z,28.20
2022-12-14T18:01:07.552Z,28.17
2022-12-14T18:03:31.100Z,28.00
2022-12-14T18:05:53.133Z,29.10
2022-12-14T18:08:13.980Z,27.60
2022-12-14T18:10:36.773Z,30.27
2022-12-14T18:12:58.438Z,28.60
2022-12-14T18:15:21.028Z,27.60
2022-12-14T18:17:42.261Z,27.30
2022-12-14T18:20:05.192Z,29.37
2022-12-14T18:22:26.250Z,31.57
2022-12-14T18:24:49.299Z,28.93
2022-12-14T18:27:10.492Z,28.20
2022-12-14T18:29:31.597Z,28.47
2022-12-14T18:31:53.307Z,31.43
2022-12-14T18:34:14.743Z,29.83
2022-12-14T18:36:37.320Z,27.80
2022-12-14T18:38:58.781Z,28.23
2022-12-14T18:41:20.880Z,27.80
2022-12-14T18:43:44.102Z,27.50
2022-12-14T18:46:06.037Z,28.07
2022-12-14T18:48:27.459Z,30.77
2022-12-14T18:50:49.904Z,29.10
2022-12-14T18:53:14.952Z,29.20
2022-12-14T18:55:36.360Z,28.97
2022-12-14T18:57:58.322Z,29.30
2022-12-14T19:00:21.012Z,29.70
2022-12-14T19:02:43.073Z,28.47
2022-12-14T19:05:04.427Z,29.53
2022-12-14T19:07:25.369Z,32.17
2022-12-14T19:09:48.001Z,30.93
2022-12-14T19:12:10.918Z,31.03
2022-12-14T19:14:32.008Z,30.77
2022-12-14T19:16:53.166Z,32.60
2022-12-14T19:19:14.522Z,30.90
2022-12-14T19:21:35.767Z,29.30
2022-12-14T19:23:57.340Z,28.90
2022-12-14T19:26:21.069Z,29.50
2022-12-14T19:28:42.289Z,35.13
2022-12-14T19:31:04.308Z,30.97
2022-12-14T19:33:26.859Z,30.77
2022-12-14T19:35:49.211Z,31.17
2022-12-14T19:38:12.770Z,31.37
2022-12-14T19:40:34.468Z,31.50
2022-12-14T19:42:56.963Z,31.13
2022-12-14T19:45:17.973Z,28.37
2022-12-14T19:47:39.004Z,28.73
2022-12-14T19:50:00.995Z,30.30
2022-12-14T19:52:22.110Z,28.53
2022-12-14T19:54:43.222Z,29.43
2022-12-14T19:57:04.471Z,30.43
2022-12-14T19:59:27.180Z,29.20
2022-12-14T20:01:48.923Z,30.13
2022-12-14T20:04:10.299Z,31.20
2022-12-14T20:06:31.698Z,30.93
2022-12-14T20:08:52.972Z,31.50
2022-12-14T20:11:14.145Z,29.43
2022-12-14T20:13:35.606Z,30.77
2022-12-14T20:15:59.280Z,28.87
2022-12-14T20:18:20.917Z,30.23
2022-12-14T20:20:41.805Z,28.33
2022-12-14T20:23:03.040Z,28.87
2022-12-14T20:25:24.834Z,29.10
2022-12-14T20:27:46.569Z,26.27
2022-12-14T20:30:08.555Z,27.97
2022-12-14T20:32:30.915Z,26.83
2022-12-14T20:34:51.831Z,28.30
2022-12-14T20:37:13.208Z,27.40
2022-12-14T20:39:34.625Z,28.40
2022-12-14T20:41:56.015Z,26.97
2022-12-14T20:44:17.236Z,26.23
2022-12-14T20:46:39.619Z,29.20
2022-12-14T20:49:02.646Z,28.97
2022-12-14T20:51:23.848Z,27.10
2022-12-14T20:53:45.298Z,27.37
2022-12-14T20:56:10.728Z,27.90
2022-12-14T20:58:32.111Z,27.70
2022-12-14T21:00:53.359Z,26.47
2022-12-14T21:03:14.758Z,28.53
2022-12-14T21:05:41.734Z,27.80
2022-12-14T21:08:03.079Z,28.77
2022-12-14T21:10:24.450Z,28.40
2022-12-14T21:12:47.258Z,27.93
2022-12-14T21:15:08.925Z,27.97
2022-12-14T21:17:30.951Z,27.90
2022-12-14T21:19:52.307Z,28.03
2022-12-14T21:22:16.114Z,27.47
2022-12-14T21:25:01.799Z,28.77
2022-12-14T21:27:20.014Z,26.47
2022-12-14T21:29:41.222Z,27.23
2022-12-14T21:32:04.265Z,26.30
2022-12-14T21:34:25.599Z,27.67
2022-12-14T21:36:47.589Z,26.57
2022-12-14T21:39:11.128Z,26.37
2022-12-14T21:42:01.219Z,27.30
2022-12-14T21:44:22.452Z,26.83
2022-12-14T21:46:43.749Z,26.73
2022-12-14T21:49:06.455Z,26.93
2022-12-14T21:51:28.921Z,26.90
2022-12-14T21:53:59.575Z,26.67
2022-12-14T21:56:39.410Z,24.70
2022-12-14T21:59:00.687Z,26.20
2022-12-14T22:01:22.175Z,26.03
2022-12-14T22:03:43.621Z,26.97
2022-12-14T22:06:05.374Z,26.43
2022-12-14T22:08:26.499Z,26.90
2022-12-14T22:10:47.833Z,26.20
2022-12-14T22:13:10.625Z,27.60
2022-12-14T22:15:31.875Z,26.57
2022-12-14T22:17:53.094Z,26.30
2022-12-14T22:20:14.375Z,27.87
2022-12-14T22:22:35.704Z,27.03
2022-12-14T22:24:57.032Z,28.17
2022-12-14T22:27:18.423Z,27.53
2022-12-14T22:29:41.183Z,26.73
2022-12-14T22:32:02.627Z,24.67
2022-12-14T22:34:24.430Z,25.57
2022-12-14T22:36:45.900Z,25.63
2022-12-14T22:39:07.181Z,25.33
2022-12-14T22:41:28.712Z,26.53
2022-12-14T22:43:50.102Z,25.00
2022-12-14T22:46:13.003Z,26.33
2022-12-14T22:48:34.914Z,28.23
2022-12-14T22:50:59.957Z,37.53
2022-12-14T22:53:21.146Z,32.70
2022-12-14T22:55:42.874Z,30.80
2022-12-14T22:58:11.914Z,28.67
2022-12-14T23:00:34.221Z,30.00
2022-12-14T23:02:56.622Z,25.07
2022-12-14T23:05:18.320Z,26.03
2022-12-14T23:07:39.604Z,25.93
2022-12-14T23:10:18.237Z,25.87
2022-12-14T23:12:57.143Z,26.97
2022-12-14T23:15:36.056Z,24.83
2022-12-14T23:18:20.848Z,25.33
2022-12-14T23:20:59.518Z,25.47
2022-12-14T23:23:38.620Z,25.77
2022-12-14T23:26:20.287Z,26.77
2022-12-14T23:28:59.155Z,24.93
2022-12-14T23:31:38.204Z,25.57
2022-12-14T23:34:18.151Z,27.00
2022-12-14T23:36:57.294Z,25.57
2022-12-14T23:39:36.565Z,24.53
2022-12-14T23:42:15.480Z,24.80
2022-12-14T23:44:54.370Z,26.57
2022-12-14T23:47:33.118Z,25.43
2022-12-14T23:50:13.193Z,25.63
2022-12-14T23:52:52.396Z,25.13
2022-12-14T23:55:31.334Z,25.83
2022-12-14T23:58:10.211Z,24.73
